Time;durP1;ratioP1;P1;durP2;ratioP2;P2;SDS_P1;SDS_P2;PMS_P1;PMS_P2;Temp;Humidity;BMP_temperature;BMP_pressure;BME280_temperature;BME280_humidity;BME280_pressure;Samples;Min_cycle;Max_cycle;Signal;HPM_P1;HPM_P2
2023/03/26 00:02:28;;;;;;;6.80;6.10;;;;;;;18.53;82.64;97952.97;104485;1256;74525;-67
2023/03/26 00:04:58;;;;;;;7.90;6.20;;;;;;;18.61;81.79;97948.45;104427;1257;63162;-67
2023/03/26 00:07:27;;;;;;;7.50;6.00;;;;;;;18.54;82.92;97948.29;104424;1258;61618;-67
2023/03/26 00:09:57;;;;;;;7.70;6.50;;;;;;;18.59;82.10;97947.27;104347;1264;74370;-67
2023/03/26 00:12:30;;;;;;;9.00;7.00;;;;;;;18.62;82.64;97944.94;104250;1256;70608;-69
2023/03/26 00:15:02;;;;;;;9.20;6.40;;;;;;;18.68;81.47;97941.34;104265;1252;74328;-68
2023/03/26 00:17:30;;;;;;;7.90;6.80;;;;;;;18.69;81.73;97941.11;104334;1267;62373;-68
2023/03/26 00:20:01;;;;;;;9.40;7.10;;;;;;;18.72;81.86;97932.25;104309;1254;61632;-67
2023/03/26 00:22:29;;;;;;;7.50;6.70;;;;;;;18.75;81.90;97932.66;104341;1257;75568;-67
2023/03/26 00:24:58;;;;;;;8.70;7.10;;;;;;;18.72;82.18;97935.08;104315;1254;71944;-66
2023/03/26 00:27:28;;;;;;;11.50;7.60;;;;;;;18.73;82.77;97939.10;104353;1260;73716;-68
2023/03/26 00:29:58;;;;;;;8.40;7.30;;;;;;;18.74;82.83;97938.23;104316;1260;62427;-71
2023/03/26 00:32:33;;;;;;;8.20;6.90;;;;;;;18.73;83.49;97938.04;106317;1251;61640;-72
2023/03/26 00:35:02;;;;;;;7.80;6.60;;;;;;;18.75;82.92;97935.38;106598;1251;76150;-70
2023/03/26 00:37:32;;;;;;;8.20;7.00;;;;;;;18.77;82.91;97934.56;104389;1266;71308;-69
2023/03/26 00:40:06;;;;;;;7.40;6.70;;;;;;;18.79;83.11;97935.79;104627;1254;74900;-66
2023/03/26 00:42:38;;;;;;;10.20;7.60;;;;;;;18.77;84.47;97935.42;104324;1267;63190;-71
2023/03/26 00:45:08;;;;;;;9.00;6.80;;;;;;;18.79;84.90;97942.00;104406;1251;61586;-71
2023/03/26 00:47:38;;;;;;;9.30;7.20;;;;;;;18.86;83.67;97939.66;104558;1251;74704;-70
2023/03/26 00:50:14;;;;;;;8.60;7.60;;;;;;;18.91;83.51;97937.95;104394;1251;70998;-68
2023/03/26 00:52:43;;;;;;;10.70;8.30;;;;;;;18.94;84.28;97942.62;104315;1256;72967;-69
2023/03/26 00:55:14;;;;;;;10.20;8.40;;;;;;;18.93;84.36;97943.38;104280;1256;62057;-71
2023/03/26 00:57:45;;;;;;;8.90;8.10;;;;;;;18.98;84.90;97940.58;104362;1256;63523;-71
2023/03/26 01:00:14;;;;;;;9.00;8.20;;;;;;;18.98;84.44;97936.14;104450;1254;74246;-69
2023/03/26 01:02:45;;;;;;;10.20;8.20;;;;;;;18.99;85.10;97939.29;104413;1254;70177;-69
2023/03/26 01:05:34;;;;;;;10.30;9.20;;;;;;;18.98;87.13;97940.20;104393;1254;74483;-69
2023/03/26 01:08:27;;;;;;;9.90;8.70;;;;;;;18.82;90.50;97939.42;104345;1251;63120;-68
2023/03/26 01:11:06;;;;;;;8.70;7.80;;;;;;;18.72;91.39;97936.70;104376;1255;62231;-68
2023/03/26 01:13:36;;;;;;;8.70;7.90;;;;;;;18.78;91.92;97935.14;104334;1267;75213;-68
2023/03/26 01:16:08;;;;;;;7.80;7.00;;;;;;;18.74;92.02;97933.14;104364;1257;70288;-66
2023/03/26 01:18:39;;;;;;;6.90;6.30;;;;;;;18.64;93.00;97935.56;104267;1263;72918;-67
2023/03/26 01:21:12;;;;;;;7.70;5.80;;;;;;;18.58;93.51;97939.36;104320;1251;63187;-68
2023/03/26 01:23:45;;;;;;;5.70;5.20;;;;;;;18.50;95.97;97934.68;104331;1267;61676;-67
2023/03/26 01:26:44;;;;;;;5.30;4.80;;;;;;;18.62;94.75;97939.25;104393;1257;74185;-67
2023/03/26 01:29:42;;;;;;;4.70;4.30;;;;;;;18.61;94.64;97940.64;104283;1251;71462;-67
2023/03/26 01:32:54;;;;;;;3.90;3.50;;;;;;;18.62;94.59;97940.41;104070;1267;73299;-67
2023/03/26 01:35:44;;;;;;;3.40;3.10;;;;;;;18.52;97.20;97938.16;104447;1255;62159;-67
2023/03/26 01:38:45;;;;;;;3.30;2.80;;;;;;;18.17;100.00;97936.91;104244;1263;61650;-66
2023/03/26 01:41:26;;;;;;;2.90;2.70;;;;;;;18.06;100.00;97942.11;104296;1267;74356;-67
2023/03/26 01:44:13;;;;;;;2.30;2.10;;;;;;;18.24;100.00;97937.09;104327;1254;70739;-67
2023/03/26 01:46:42;;;;;;;2.60;1.90;;;;;;;18.31;99.86;97940.73;104383;1268;73207;-67
2023/03/26 01:49:12;;;;;;;1.80;1.70;;;;;;;18.37;98.83;97939.36;104293;1251;62923;-66
2023/03/26 01:51:41;;;;;;;2.00;1.60;;;;;;;18.41;96.82;97939.13;104409;1254;61670;-66
2023/03/26 01:54:18;;;;;;;1.40;1.30;;;;;;;18.39;97.51;97938.27;104322;1258;74316;-66
2023/03/26 01:57:12;;;;;;;0.90;0.90;;;;;;;18.32;95.52;97940.77;104307;1255;70128;-67
2023/03/26 02:00:10;;;;;;;1.10;1.00;;;;;;;18.32;95.87;97946.67;104320;1257;73174;-68
2023/03/26 02:03:04;;;;;;;1.00;0.80;;;;;;;18.17;96.11;97947.04;104313;1258;62815;-67
2023/03/26 02:05:36;;;;;;;0.60;0.60;;;;;;;18.18;94.55;97949.25;104254;1254;61698;-67
2023/03/26 02:08:34;;;;;;;0.80;0.80;;;;;;;18.01;95.17;97955.73;104350;1254;75175;-67
2023/03/26 02:11:10;;;;;;;0.70;0.60;;;;;;;17.80;96.94;97957.30;104365;1263;71274;-66
2023/03/26 02:13:41;;;;;;;0.70;0.70;;;;;;;17.92;94.38;97959.51;104337;1258;73951;-67
2023/03/26 02:16:15;;;;;;;0.50;0.50;;;;;;;18.01;91.16;97959.14;104326;1263;62344;-66
2023/03/26 02:18:50;;;;;;;0.90;0.70;;;;;;;18.04;90.03;97972.30;104296;1266;61585;-67
2023/03/26 02:21:20;;;;;;;0.40;0.40;;;;;;;18.03;88.85;97977.21;104371;1259;74184;-66
2023/03/26 02:23:49;;;;;;;0.40;0.40;;;;;;;18.00;88.33;97978.42;104432;1258;70877;-66
2023/03/26 02:26:18;;;;;;;1.00;0.70;;;;;;;18.01;87.41;97986.73;104235;1254;73946;-66
2023/03/26 02:28:55;;;;;;;0.60;0.60;;;;;;;18.02;86.74;97986.22;104483;1257;62144;-66
2023/03/26 02:31:29;;;;;;;0.40;0.30;;;;;;;17.93;86.81;97988.99;104301;1254;61651;-66
2023/03/26 02:33:58;;;;;;;0.50;0.50;;;;;;;17.82;87.07;97998.61;104325;1251;74579;-66
2023/03/26 02:36:28;;;;;;;0.30;0.30;;;;;;;17.85;86.70;98001.80;104322;1251;70655;-67
2023/03/26 02:38:59;;;;;;;0.80;0.70;;;;;;;17.75;86.85;98011.46;104253;1251;74931;-66
2023/03/26 02:41:30;;;;;;;1.00;0.40;;;;;;;17.71;86.89;98015.60;104342;1257;63053;-66
2023/03/26 02:44:08;;;;;;;0.60;0.50;;;;;;;17.67;86.86;98017.52;104319;1263;62248;-67
2023/03/26 02:46:55;;;;;;;0.60;0.60;;;;;;;17.61;87.82;98015.16;104183;1254;75105;-67
2023/03/26 02:49:51;;;;;;;0.40;0.40;;;;;;;17.63;87.05;98020.64;104198;1264;70477;-65
2023/03/26 02:52:24;;;;;;;0.60;0.60;;;;;;;17.59;86.07;98021.36;104403;1266;73441;-70
2023/03/26 02:54:55;;;;;;;0.50;0.50;;;;;;;17.58;86.32;98025.20;104307;1264;62203;-70
2023/03/26 02:57:25;;;;;;;1.30;0.60;;;;;;;17.57;86.27;98030.05;104213;1254;61627;-69
2023/03/26 03:00:16;;;;;;;0.90;0.50;;;;;;;17.68;85.79;98027.56;104369;1251;75146;-69
2023/03/26 03:02:48;;;;;;;0.70;0.50;;;;;;;17.72;84.84;98033.89;104350;1251;71400;-70
2023/03/26 03:05:53;;;;;;;0.80;0.50;;;;;;;17.75;85.06;98043.88;104328;1267;73067;-71
2023/03/26 03:08:40;;;;;;;0.60;0.60;;;;;;;17.76;83.93;98052.69;104297;1250;62636;-70
2023/03/26 03:11:11;;;;;;;1.00;0.70;;;;;;;17.69;84.36;98053.89;104250;1272;61590;-69
2023/03/26 03:13:49;;;;;;;0.60;0.60;;;;;;;17.69;84.41;98060.96;104319;1251;75524;-71
2023/03/26 03:16:23;;;;;;;0.70;0.70;;;;;;;17.66;84.08;98064.29;104228;1255;70190;-72
2023/03/26 03:18:55;;;;;;;0.60;0.60;;;;;;;17.64;83.24;98070.86;104365;1257;74907;-72
2023/03/26 03:21:29;;;;;;;0.60;0.60;;;;;;;17.75;82.29;98073.65;104359;1261;63463;-71
2023/03/26 03:23:58;;;;;;;0.50;0.50;;;;;;;17.80;81.62;98078.20;104390;1257;61705;-71
2023/03/26 03:26:29;;;;;;;0.60;0.60;;;;;;;17.77;80.28;98087.96;104320;1260;74361;-71
2023/03/26 03:29:02;;;;;;;0.60;0.60;;;;;;;17.73;79.08;98094.40;104530;1251;70519;-72
2023/03/26 03:31:31;;;;;;;0.50;0.50;;;;;;;17.68;78.46;98102.65;104412;1257;73826;-71
2023/03/26 03:34:03;;;;;;;0.60;0.60;;;;;;;17.76;78.18;98109.69;104442;1265;62948;-71
2023/03/26 03:36:37;;;;;;;0.60;0.40;;;;;;;17.77;75.87;98106.95;104336;1263;61673;-71
2023/03/26 03:39:18;;;;;;;0.80;0.70;;;;;;;17.78;75.72;98116.14;104458;1267;74269;-72
2023/03/26 03:41:49;;;;;;;1.80;0.70;;;;;;;17.75;75.56;98116.15;104387;1251;71491;-69
2023/03/26 03:44:18;;;;;;;0.70;0.60;;;;;;;17.70;74.29;98114.73;104436;1269;73379;-69
2023/03/26 03:46:48;;;;;;;0.60;0.60;;;;;;;17.68;74.01;98115.27;104177;1267;62949;-69
2023/03/26 03:49:18;;;;;;;1.20;0.80;;;;;;;17.69;73.36;98114.10;104407;1258;61708;-69
2023/03/26 03:51:47;;;;;;;0.70;0.70;;;;;;;17.67;73.49;98120.84;104483;1267;75645;-68
2023/03/26 03:54:29;;;;;;;0.40;0.40;;;;;;;17.63;72.83;98128.83;104441;1251;70848;-68
2023/03/26 03:57:35;;;;;;;4.20;0.90;;;;;;;17.70;72.62;98128.38;104244;1270;73687;-68
2023/03/26 04:00:10;;;;;;;0.70;0.50;;;;;;;17.70;72.21;98129.65;104337;1256;63049;-68
2023/03/26 04:02:48;;;;;;;1.00;0.80;;;;;;;17.72;71.92;98128.20;104271;1257;62107;-69
2023/03/26 04:05:17;;;;;;;2.70;1.40;;;;;;;17.68;71.47;98127.64;104335;1257;74520;-69
2023/03/26 04:07:49;;;;;;;4.90;1.60;;;;;;;17.65;72.00;98127.99;104274;1272;70256;-68
2023/03/26 04:10:27;;;;;;;;;;;;;;;17.68;72.13;98135.11;104248;1267;73448;-68
2023/03/26 04:13:22;;;;;;;3.00;1.90;;;;;;;17.79;71.33;98144.77;104287;1256;62170;-68
2023/03/26 04:16:13;;;;;;;3.20;2.30;;;;;;;17.81;71.24;98148.57;104237;1263;61616;-67
2023/03/26 04:18:44;;;;;;;2.70;1.60;;;;;;;17.77;71.28;98150.36;104512;1258;75951;-67
2023/03/26 04:21:15;;;;;;;1.30;1.10;;;;;;;17.72;72.13;98154.76;104264;1256;71163;-67
2023/03/26 04:23:44;;;;;;;2.70;1.30;;;;;;;17.70;72.59;98158.18;104248;1262;74215;-68
2023/03/26 04:26:29;;;;;;;1.00;0.90;;;;;;;17.63;72.90;98160.04;104203;1253;62214;-67
2023/03/26 04:29:05;;;;;;;3.50;0.80;;;;;;;17.52;73.57;98166.56;104364;1256;61670;-66
2023/03/26 04:31:38;;;;;;;0.90;0.90;;;;;;;17.49;74.43;98169.67;104362;1254;74338;-67
2023/03/26 04:34:13;;;;;;;1.70;1.10;;;;;;;17.51;73.88;98167.89;104638;1254;71867;-66
2023/03/26 04:36:53;;;;;;;1.80;1.50;;;;;;;17.48;74.09;98172.05;104308;1252;72804;-69
2023/03/26 04:39:27;;;;;;;1.70;1.30;;;;;;;17.52;73.85;98172.11;104200;1258;61839;-67
2023/03/26 04:42:19;;;;;;;3.00;2.00;;;;;;;17.55;73.34;98174.80;104201;1260;61594;-67
2023/03/26 04:45:04;;;;;;;4.60;1.70;;;;;;;17.53;72.89;98180.48;104272;1253;74355;-67
2023/03/26 04:47:35;;;;;;;2.50;1.40;;;;;;;17.44;72.20;98170.31;104240;1255;70776;-67
2023/03/26 04:50:07;;;;;;;2.80;1.80;;;;;;;17.52;73.36;98170.65;104339;1252;73225;-67
2023/03/26 04:52:36;;;;;;;4.40;2.20;;;;;;;17.56;72.60;98170.77;104275;1257;63209;-67
2023/03/26 04:55:28;;;;;;;3.50;2.50;;;;;;;17.61;71.20;98176.03;104174;1275;61610;-67
2023/03/26 04:58:04;;;;;;;2.80;2.00;;;;;;;17.59;70.83;98175.83;104348;1258;74508;-67
2023/03/26 05:00:49;;;;;;;4.80;2.60;;;;;;;17.61;70.55;98177.96;104237;1265;70709;-66
2023/03/26 05:03:19;;;;;;;2.70;1.70;;;;;;;17.48;69.55;98184.70;104202;1260;72768;-66
2023/03/26 05:05:49;;;;;;;1.80;1.50;;;;;;;17.43;69.84;98188.88;104233;1256;62984;-66
2023/03/26 05:08:17;;;;;;;4.40;1.40;;;;;;;17.43;69.95;98194.36;104145;1262;61586;-66
2023/03/26 05:10:46;;;;;;;2.40;1.70;;;;;;;17.45;69.86;98200.85;104240;1257;74720;-68
2023/03/26 05:13:23;;;;;;;1.60;1.10;;;;;;;17.43;69.19;98206.92;104241;1267;72111;-67
2023/03/26 05:15:54;;;;;;;2.20;1.20;;;;;;;17.41;68.94;98203.24;104160;1253;74420;-68
2023/03/26 05:18:34;;;;;;;1.20;1.00;;;;;;;17.40;68.77;98214.13;104401;1256;63259;-69
2023/03/26 05:21:03;;;;;;;1.30;1.10;;;;;;;17.38;68.41;98212.00;104301;1256;61552;-69
2023/03/26 05:23:39;;;;;;;0.60;0.50;;;;;;;17.43;68.95;98214.06;104292;1251;74809;-69
2023/03/26 05:26:17;;;;;;;;;;;;;;;17.44;68.35;98218.19;104262;1267;71176;-70
2023/03/26 05:28:45;;;;;;;1.10;0.90;;;;;;;17.45;68.26;98220.60;104222;1257;73501;-69
2023/03/26 05:31:23;;;;;;;;;;;;;;;17.47;69.00;98229.63;104253;1267;63919;-70
2023/03/26 05:33:53;;;;;;;1.40;0.90;;;;;;;17.57;68.64;98227.27;105527;1252;62051;-68
2023/03/26 05:36:27;;;;;;;0.80;0.70;;;;;;;17.51;69.31;98224.73;108325;1251;77030;-69
2023/03/26 05:39:10;;;;;;;1.00;1.00;;;;;;;17.40;68.17;98222.99;104351;1269;70294;-69
2023/03/26 05:42:06;;;;;;;1.30;0.90;;;;;;;17.43;69.27;98220.38;104207;1258;73666;-69
2023/03/26 05:44:58;;;;;;;1.70;0.80;;;;;;;17.52;69.47;98224.48;104209;1255;62498;-69
2023/03/26 05:47:28;;;;;;;1.30;0.90;;;;;;;17.52;68.41;98231.83;104269;1251;61600;-68
2023/03/26 05:49:56;;;;;;;1.60;1.00;;;;;;;17.53;67.97;98236.63;104223;1254;74282;-65
2023/03/26 05:52:26;;;;;;;1.80;1.20;;;;;;;17.58;67.92;98237.56;104360;1267;70132;-64
2023/03/26 05:55:17;;;;;;;2.10;1.20;;;;;;;17.55;66.70;98239.70;104400;1256;74191;-65
2023/03/26 05:58:05;;;;;;;1.40;0.90;;;;;;;17.55;66.89;98240.34;104268;1268;63117;-65
2023/03/26 06:01:04;;;;;;;1.00;0.90;;;;;;;17.55;67.34;98236.88;104709;1254;61775;-65
2023/03/26 06:03:45;;;;;;;1.20;0.80;;;;;;;17.59;66.54;98233.25;104218;1254;76017;-65
2023/03/26 06:06:19;;;;;;;1.20;0.60;;;;;;;17.64;67.01;98235.95;104477;1257;71374;-65
2023/03/26 06:08:57;;;;;;;1.40;0.70;;;;;;;17.67;66.30;98234.83;104907;1256;74972;-68
2023/03/26 06:11:30;;;;;;;4.00;0.90;;;;;;;17.66;65.84;98240.20;104391;1251;64666;-68
2023/03/26 06:14:07;;;;;;;;;;;;;;;17.72;65.23;98241.77;104424;1253;61989;-67
2023/03/26 06:16:39;;;;;;;1.60;1.00;;;;;;;17.77;64.70;98237.58;104406;1252;76421;-65
2023/03/26 06:19:28;;;;;;;1.90;0.90;;;;;;;17.80;64.46;98236.09;104267;1257;72473;-67
2023/03/26 06:22:09;;;;;;;0.70;0.60;;;;;;;17.88;64.01;98234.41;104242;1269;75246;-67
2023/03/26 06:24:58;;;;;;;1.00;0.80;;;;;;;17.95;63.80;98231.84;104421;1254;62606;-66
2023/03/26 06:27:48;;;;;;;1.20;0.70;;;;;;;17.98;62.49;98235.47;104356;1253;61650;-67
2023/03/26 06:30:58;;;;;;;0.90;0.80;;;;;;;18.04;62.01;98235.23;104183;1257;73857;-71
2023/03/26 06:33:37;;;;;;;0.80;0.80;;;;;;;17.99;61.75;98239.23;104468;1257;71820;-69
2023/03/26 06:36:06;;;;;;;0.70;0.70;;;;;;;18.06;61.17;98232.67;107808;1253;73044;-67
2023/03/26 06:38:35;;;;;;;0.60;0.60;;;;;;;18.09;59.99;98234.73;105947;1255;63956;-65
2023/03/26 06:41:07;;;;;;;0.80;0.80;;;;;;;18.15;59.77;98237.03;104592;1255;62359;-70
2023/03/26 06:44:14;;;;;;;0.90;0.60;;;;;;;18.24;60.83;98239.17;104429;1258;76312;-71
2023/03/26 06:47:19;;;;;;;0.80;0.70;;;;;;;18.21;59.19;98243.69;104562;1259;72805;-69
2023/03/26 06:52:54;;;;;;;1.40;0.90;;;;;;;17.34;70.96;98244.77;101356;1292;602699;-67
2023/03/26 06:55:41;;;;;;;1.10;0.80;;;;;;;18.46;63.35;98233.99;103914;1280;63124;-68
2023/03/26 06:58:36;;;;;;;0.90;0.90;;;;;;;18.45;60.63;98232.82;103535;1266;62412;-69
2023/03/26 07:01:24;;;;;;;2.50;0.80;;;;;;;18.47;61.44;98238.86;103808;1269;72714;-70
2023/03/26 07:04:11;;;;;;;1.90;1.10;;;;;;;18.44;62.41;98241.48;103753;1271;70062;-71
2023/03/26 07:07:20;;;;;;;0.90;0.80;;;;;;;18.57;61.03;98241.60;103166;1269;200338;-69
2023/03/26 07:10:08;;;;;;;2.40;1.10;;;;;;;18.46;62.40;98240.86;104042;1263;63810;-70
2023/03/26 07:12:59;;;;;;;1.10;1.00;;;;;;;18.37;63.21;98243.77;104436;1263;61171;-68
2023/03/26 07:15:54;;;;;;;0.90;0.90;;;;;;;18.43;62.97;98242.11;104139;1266;73860;-71
2023/03/26 07:18:33;;;;;;;1.20;0.80;;;;;;;18.37;62.29;98245.13;104098;1267;72230;-71
2023/03/26 07:21:04;;;;;;;2.40;1.20;;;;;;;18.40;62.75;98240.45;103975;1267;73885;-70
2023/03/26 07:23:35;;;;;;;1.00;0.80;;;;;;;18.38;61.93;98239.05;103701;1264;62113;-74
2023/03/26 07:26:35;;;;;;;1.30;0.90;;;;;;;18.58;61.85;98240.27;104528;1251;61140;-72
2023/03/26 07:29:40;;;;;;;2.10;1.00;;;;;;;18.69;59.37;98247.07;104331;1258;75513;-70
2023/03/26 07:32:42;;;;;;;1.20;0.90;;;;;;;18.81;59.27;98251.73;104501;1256;71971;-69
2023/03/26 07:35:45;;;;;;;2.20;1.10;;;;;;;18.75;58.70;98252.16;107228;1250;74612;-67
2023/03/26 07:38:51;;;;;;;1.00;0.80;;;;;;;18.79;58.48;98259.00;106245;1262;63915;-68
2023/03/26 07:42:13;;;;;;;2.10;1.00;;;;;;;18.78;58.33;98262.82;104387;1273;60862;-68
2023/03/26 07:45:32;;;;;;;0.90;0.90;;;;;;;18.94;57.18;98265.38;104753;1254;75221;-71
2023/03/26 07:48:27;;;;;;;0.90;0.70;;;;;;;19.05;55.23;98267.84;104751;1251;72982;-69
2023/03/26 07:51:17;;;;;;;1.00;0.90;;;;;;;18.93;55.26;98267.94;104441;1251;75483;-69
2023/03/26 07:54:02;;;;;;;0.80;0.70;;;;;;;19.02;56.31;98267.05;104479;1252;64278;-69
2023/03/26 07:56:56;;;;;;;4.00;1.20;;;;;;;19.04;56.25;98271.98;104871;1260;63038;-71
2023/03/26 07:59:53;;;;;;;1.30;0.80;;;;;;;19.01;56.48;98272.06;104472;1272;75598;-64
2023/03/26 08:03:20;;;;;;;1.80;0.90;;;;;;;19.07;56.56;98271.73;104448;1256;71189;-65
2023/03/26 08:06:16;;;;;;;1.70;1.00;;;;;;;19.03;56.83;98276.55;104441;1255;74315;-65
2023/03/26 08:09:16;;;;;;;1.80;1.50;;;;;;;19.06;55.50;98276.78;104262;1251;63837;-65
2023/03/26 08:12:00;;;;;;;1.90;1.30;;;;;;;19.15;55.64;98276.09;104301;1258;60846;-67
2023/03/26 08:14:32;;;;;;;2.10;1.40;;;;;;;19.19;55.50;98278.13;104458;1257;75427;-66
2023/03/26 08:17:36;;;;;;;2.10;1.20;;;;;;;19.23;55.34;98276.66;104471;1254;71768;-67
2023/03/26 08:20:35;;;;;;;1.50;1.40;;;;;;;19.31;53.77;98271.83;104297;1254;74664;-67
2023/03/26 08:23:26;;;;;;;2.50;1.20;;;;;;;19.37;54.98;98271.36;104227;1262;63498;-70
2023/03/26 08:26:04;;;;;;;1.20;1.10;;;;;;;19.47;53.62;98265.04;106683;1250;62370;-69
2023/03/26 08:29:10;;;;;;;1.20;1.10;;;;;;;19.62;53.66;98258.52;104651;1265;75319;-67
2023/03/26 08:31:40;;;;;;;2.20;1.40;;;;;;;19.78;53.02;98256.88;104494;1254;69732;-68
2023/03/26 08:34:10;;;;;;;1.80;1.60;;;;;;;19.71;53.29;98256.16;104858;1251;74222;-68
2023/03/26 08:36:39;;;;;;;2.20;1.50;;;;;;;19.84;52.74;98259.27;104318;1265;64122;-68
2023/03/26 08:39:07;;;;;;;3.20;1.70;;;;;;;19.87;53.09;98258.98;104380;1266;60837;-68
2023/03/26 08:42:04;;;;;;;3.50;1.50;;;;;;;20.02;52.83;98261.27;104420;1257;75565;-67
2023/03/26 08:44:33;;;;;;;5.20;2.00;;;;;;;19.83;52.97;98257.80;104279;1261;71696;-68
2023/03/26 08:47:18;;;;;;;4.00;1.60;;;;;;;19.91;52.94;98255.60;104459;1255;75149;-68
2023/03/26 08:50:18;;;;;;;3.10;1.80;;;;;;;19.92;51.99;98253.48;104346;1256;63895;-65
2023/03/26 08:53:20;;;;;;;2.30;1.70;;;;;;;20.01;52.02;98255.27;104266;1257;62094;-71
2023/03/26 08:55:56;;;;;;;3.00;1.50;;;;;;;20.12;52.06;98250.08;104335;1266;75107;-70
2023/03/26 08:58:49;;;;;;;3.00;2.70;;;;;;;20.11;51.99;98252.77;104519;1260;71450;-66
2023/03/26 09:01:24;;;;;;;4.10;2.20;;;;;;;20.32;51.88;98256.46;104641;1256;73887;-65
2023/03/26 09:04:18;;;;;;;2.60;2.00;;;;;;;20.44;51.92;98256.66;104556;1256;62560;-67
2023/03/26 09:07:20;;;;;;;3.40;1.90;;;;;;;20.55;51.80;98255.16;104721;1256;62380;-67
2023/03/26 09:10:28;;;;;;;1.50;1.40;;;;;;;20.68;51.12;98256.31;104489;1255;75369;-68
2023/03/26 09:13:39;;;;;;;3.20;2.00;;;;;;;20.68;50.70;98254.98;104203;1260;72614;-66
2023/03/26 09:16:30;;;;;;;2.00;1.80;;;;;;;20.78;51.37;98253.61;104399;1269;74209;-64
2023/03/26 09:19:13;;;;;;;2.80;2.20;;;;;;;20.84;51.25;98236.45;104423;1270;62445;-66
2023/03/26 09:21:57;;;;;;;5.70;4.90;;;;;;;20.95;51.59;98244.98;104440;1255;63343;-69
2023/03/26 09:24:33;;;;;;;5.10;3.00;;;;;;;20.99;50.95;98244.87;104513;1257;75609;-69
2023/03/26 09:27:33;;;;;;;3.90;3.10;;;;;;;20.99;50.77;98249.42;104446;1257;71505;-67
2023/03/26 09:30:28;;;;;;;2.90;2.60;;;;;;;21.08;49.34;98246.48;104628;1256;75156;-71
2023/03/26 09:33:26;;;;;;;4.10;2.60;;;;;;;21.24;49.51;98246.84;104570;1251;62158;-70
2023/03/26 09:36:18;;;;;;;3.60;3.20;;;;;;;21.21;49.22;98241.46;106460;1250;62839;-67
2023/03/26 09:39:17;;;;;;;3.40;2.80;;;;;;;21.27;50.13;98246.02;107950;1251;75579;-67
2023/03/26 09:41:57;;;;;;;3.10;2.60;;;;;;;21.18;49.44;98246.98;107288;1252;72067;-68
2023/03/26 09:45:00;;;;;;;3.50;3.10;;;;;;;21.01;48.45;98245.77;108467;1254;74832;-68
2023/03/26 09:47:44;;;;;;;3.40;3.10;;;;;;;20.81;49.09;98245.61;105447;1251;65109;-68
2023/03/26 09:50:25;;;;;;;3.60;3.30;;;;;;;20.70;49.77;98254.99;104675;1256;61915;-72
2023/03/26 09:53:17;;;;;;;6.50;3.70;;;;;;;20.68;50.50;98254.62;104703;1259;75269;-71
2023/03/26 09:56:07;;;;;;;7.00;3.30;;;;;;;20.66;50.84;98253.67;104401;1259;72443;-71
2023/03/26 09:58:45;;;;;;;4.60;4.10;;;;;;;20.54;51.55;98247.19;104393;1267;74233;-71
2023/03/26 10:01:17;;;;;;;;;;;;;;;20.42;52.27;98241.70;104508;1256;62513;-70
2023/03/26 10:04:19;;;;;;;6.40;3.40;;;;;;;20.37;53.05;98241.77;104298;1267;62237;-72
2023/03/26 10:06:56;;;;;;;5.10;4.60;;;;;;;20.46;53.88;98238.98;104631;1251;75055;-71
2023/03/26 10:09:39;;;;;;;4.50;3.90;;;;;;;20.51;53.70;98242.17;107886;1251;72302;-69
2023/03/26 10:12:14;;;;;;;4.70;4.10;;;;;;;20.61;53.30;98247.59;104695;1259;76134;-70
2023/03/26 10:14:47;;;;;;;5.30;3.70;;;;;;;20.68;52.85;98255.05;104394;1273;64720;-68
2023/03/26 10:18:06;;;;;;;4.80;4.30;;;;;;;20.74;52.55;98251.19;104242;1257;62349;-68
2023/03/26 10:21:00;;;;;;;5.80;3.70;;;;;;;20.79;52.50;98254.94;104359;1263;76539;-68
2023/03/26 10:23:49;;;;;;;5.00;4.20;;;;;;;20.81;52.11;98251.34;104538;1273;72844;-68
2023/03/26 10:26:37;;;;;;;8.80;6.10;;;;;;;20.71;52.02;98248.31;104934;1253;74740;-66
2023/03/26 10:29:22;;;;;;;6.80;5.20;;;;;;;20.82;52.29;98247.43;104595;1256;63188;-70
2023/03/26 10:32:14;;;;;;;5.90;5.30;;;;;;;20.90;52.23;98250.03;104295;1257;61402;-70
2023/03/26 10:34:55;;;;;;;6.50;4.50;;;;;;;20.99;51.63;98249.71;105079;1256;75875;-68
2023/03/26 10:37:34;;;;;;;6.30;4.80;;;;;;;20.94;50.87;98252.96;104502;1264;71752;-70
2023/03/26 10:40:26;;;;;;;6.80;6.20;;;;;;;20.94;50.86;98254.59;104360;1267;75258;-68
2023/03/26 10:43:18;;;;;;;5.10;4.60;;;;;;;21.01;50.89;98253.48;104646;1251;64571;-67
2023/03/26 10:46:00;;;;;;;5.20;4.70;;;;;;;20.94;50.46;98253.65;104240;1267;62147;-68
2023/03/26 10:48:53;;;;;;;4.90;4.40;;;;;;;20.89;49.99;98249.08;104373;1254;76292;-68
2023/03/26 10:51:50;;;;;;;4.70;4.20;;;;;;;20.93;49.76;98250.42;104483;1259;72212;-69
2023/03/26 10:54:46;;;;;;;4.70;4.10;;;;;;;20.88;49.94;98256.69;104310;1267;75226;-68
2023/03/26 10:57:54;;;;;;;4.30;3.90;;;;;;;20.78;50.06;98254.34;104737;1260;62594;-69
2023/03/26 11:00:28;;;;;;;3.80;3.50;;;;;;;20.57;50.64;98252.79;104552;1260;63059;-66
2023/03/26 11:03:34;;;;;;;4.70;3.80;;;;;;;20.54;50.86;98256.09;104284;1266;75311;-67
2023/03/26 11:06:15;;;;;;;4.40;4.00;;;;;;;20.50;51.18;98251.44;104732;1256;72098;-69
2023/03/26 11:09:26;;;;;;;4.30;3.40;;;;;;;20.62;50.84;98250.15;104488;1251;75825;-69
2023/03/26 11:12:13;;;;;;;3.40;3.10;;;;;;;20.77;49.82;98246.42;104005;1276;64011;-66
2023/03/26 11:15:17;;;;;;;3.10;2.90;;;;;;;20.78;49.62;98241.52;104026;1263;62106;-65
2023/03/26 11:18:09;;;;;;;3.40;3.10;;;;;;;20.84;49.97;98241.73;104301;1262;75294;-65
2023/03/26 11:20:50;;;;;;;3.10;2.50;;;;;;;20.95;49.22;98239.46;104945;1258;71924;-69
2023/03/26 11:23:30;;;;;;;4.00;3.20;;;;;;;21.02;49.41;98238.02;104417;1256;75282;-66
2023/03/26 11:26:02;;;;;;;3.70;2.90;;;;;;;21.02;48.63;98234.45;104295;1269;61871;-68
2023/03/26 11:28:51;;;;;;;3.10;2.40;;;;;;;21.14;49.15;98231.35;104368;1270;62357;-70
2023/03/26 11:31:49;;;;;;;3.70;2.30;;;;;;;21.40;48.47;98227.83;104680;1256;75529;-71
2023/03/26 11:34:18;;;;;;;;;;;;;;;21.49;48.04;98226.71;104521;1257;71481;-69
2023/03/26 11:36:53;;;;;;;2.50;2.20;;;;;;;21.49;47.42;98226.73;104278;1270;75475;-70
2023/03/26 11:39:24;;;;;;;2.30;2.00;;;;;;;21.36;46.72;98230.36;107781;1251;61755;-69
2023/03/26 11:42:06;;;;;;;4.60;2.00;;;;;;;21.44;47.06;98230.27;105544;1254;62690;-68
2023/03/26 11:45:04;;;;;;;2.30;1.70;;;;;;;21.60;46.93;98227.45;104541;1257;76444;-66
2023/03/26 11:47:43;;;;;;;1.60;1.50;;;;;;;21.60;46.20;98230.62;104490;1258;72157;-67
2023/03/26 11:50:35;;;;;;;2.60;1.60;;;;;;;21.46;45.62;98229.70;104479;1257;74581;-68
2023/03/26 11:53:11;;;;;;;2.70;2.00;;;;;;;21.17;45.44;98233.72;104560;1254;62666;-71
2023/03/26 11:55:43;;;;;;;1.60;1.40;;;;;;;21.25;46.68;98233.94;105036;1260;61692;-66
2023/03/26 11:58:26;;;;;;;2.10;1.70;;;;;;;21.17;46.05;98226.64;104358;1256;76405;-66
2023/03/26 12:00:55;;;;;;;2.00;1.50;;;;;;;21.23;46.48;98222.92;104309;1254;72109;-66
2023/03/26 12:03:29;;;;;;;5.00;1.90;;;;;;;21.31;46.32;98219.00;104212;1257;75108;-64
2023/03/26 12:05:58;;;;;;;2.30;2.00;;;;;;;21.29;45.62;98219.05;104226;1251;62426;-65
2023/03/26 12:08:33;;;;;;;3.30;1.60;;;;;;;21.41;46.31;98217.77;104302;1257;62392;-65
2023/03/26 12:11:07;;;;;;;1.80;1.70;;;;;;;21.66;45.93;98215.73;106824;1252;76427;-65
2023/03/26 12:13:38;;;;;;;1.40;1.30;;;;;;;21.91;45.53;98210.04;107138;1251;70557;-64
2023/03/26 12:16:15;;;;;;;2.10;1.50;;;;;;;22.12;45.30;98206.30;104664;1257;74765;-64
2023/03/26 12:18:45;;;;;;;1.40;1.20;;;;;;;22.24;43.88;98204.18;104864;1251;62213;-64
2023/03/26 12:21:16;;;;;;;1.20;1.10;;;;;;;22.23;43.47;98205.19;104377;1261;61609;-64
2023/03/26 12:23:59;;;;;;;1.50;1.30;;;;;;;22.08;42.76;98205.45;104470;1263;76525;-64
2023/03/26 12:26:43;;;;;;;2.40;1.50;;;;;;;22.02;43.42;98200.77;104405;1251;69641;-63
2023/03/26 12:29:14;;;;;;;1.30;1.20;;;;;;;21.91;43.54;98201.61;104269;1251;75187;-64
2023/03/26 12:31:48;;;;;;;1.70;1.10;;;;;;;21.78;43.39;98202.27;104251;1264;62868;-64
2023/03/26 12:34:21;;;;;;;2.70;1.20;;;;;;;21.79;43.62;98201.62;104440;1251;61715;-68
2023/03/26 12:36:52;;;;;;;1.60;1.10;;;;;;;21.70;43.08;98202.95;105214;1250;75521;-65
2023/03/26 12:39:40;;;;;;;1.60;1.00;;;;;;;21.63;43.14;98200.86;108504;1251;72800;-65